Huvudsida
METAR-TAF:

METAR-TAF

Flygplatser :

Belgrad-Nikola Teslas flygplats

Belgrad, Serbien

latitud: 44-49N, longitud: 020-17E, höjd: 96 m

Aktuellt väderrapport

Denna rapport gjordes för 20 minuter sedan, klockan 20:30 UTC
Vind 3 kt från syd/sydost
Temperatur 4°C
Fuktighet 87%
Tryck 1029 hPa
Sikt 10 km eller mer
Inga moln under 1 500 m eller inga cumulonimbus

METAR: LYBE 162030Z 15003KT CAVOK 04/02 Q1029 NOSIG

Tid: 21:50 (20:50 UTC)

Väderprognos

Denna rapport gjordes för 3 timmar och 50 minuter sedan, klockan 17:00 UTC
Prognos gäller från 16 kl. 18 UTC till 17 kl. 18 UTC
Vind 7 kt från nordost
Sikt 10 km eller mer
Spridda moln på en höjd av 4000 ft
Blir
från 17 kl. 08 UTC till 17 kl. 11 UTC
Vind 12 kt från ost

TAF: LYBE 161700Z 1618/1718 04007KT 9999 SCT040 TX08/1712Z TN01/1704Z BECMG 1708/1711 10012KT

Aktuella väderrapporter och prognoser från 4000 flygplatser (METAR- och TAF-rapporter).

De tillgängliga stationerna syns som gula och röda prickar på kartan.

För musen över prickarna för att se namnen på stationerna.

Klicka sedan för att få väderrapporter och prognoser.

För att ändra kartan: Klicka på de gröna knapparna med ett svart kors på för att zooma in; den gröna knappen med ett streck på för att zooma ut; eller på de gröna pilarna för angränsande kartor.


METAR-TAF: